X  Close Metar Aviation Weather Data     EBBR Brussels Airport
Temperature
15°C Temperature
12°C Dewpoint
82% Humidity



Wind
14 KM/H
9 MPH
4 M/S
8 KTS



220°
SW
Current Conditions

Mostly Scattered Clouds Mostly Scattered Clouds
Pressure 1008.92 (hPa) - 29.79 (inHg)
Visibility 6.2 (mile) - 10 (km)
Airport
Airport-code EBBR

Location: Brussels Airport
Distance: 14 (km)

Metar:
EBBR 212350Z 22008KT 9999 SCT030 15/12 Q1009 NOSIG

Time: 2020-10-22 01:50 CEST